Sawtelle Peak

Sawtelle summit stationLocated on Sawtelle Peak in the Centennials. Use the Sawtelle SNOdar or the nearest SNOTEL station for snow depth data: White Elephant. The data on this page is also available to view at dataGarrison.com.

 

Elevation
9885ft
Jump to table bottom
Date Time Temperature
deg F
RH, % Wind Speed Wind Gust Wind Direction Pressure Light
03/05/24 03:00 -0.3 90 31 43 W - 284 692.840 0
03/05/24 02:00 -1.2 90 33 79 W - 278 693.540 0
03/05/24 01:00 -1.4 89 20 71 NW - 305 694.560 0
03/05/24 00:00 -1.0 90 20 54 NW - 314 694.920 0
03/04/24 23:00 0.2 90 19 70 NW - 310 694.640 0
03/04/24 22:00 1.1 90 19 77 NW - 310 694.760 0
03/04/24 21:00 2.1 91 24 72 NW - 306 694.800 0
03/04/24 20:00 2.3 91 27 75 NW - 306 693.980 0
03/04/24 19:00 2.6 91 21 70 NW - 310 693.540 0
03/04/24 18:00 2.7 91 25 68 NW - 299 693.040 675
03/04/24 17:00 4.6 91 16 60 NW - 303 692.600 65,860
03/04/24 16:00 7.0 92 10 44 NW - 310 692.340 128,405
03/04/24 15:00 10.0 93 12 41 W - 292 691.760 168,576
03/04/24 14:00 12.5 94 10 28 W - 286 691.380 244,850
03/04/24 13:00 13.0 94 10 31 W - 291 691.380 310,954
03/04/24 12:00 12.9 94 8 31 W - 291 691.860 349,599
03/04/24 11:00 9.8 93 8 33 W - 289 691.780 284,512
03/04/24 10:00 6.9 92 9 25 W - 282 691.760 272,308
03/04/24 09:00 3.1 91 16 25 W - 284 691.420 218,408
03/04/24 08:00 1.6 90 20 28 W - 282 691.060 113,658
03/04/24 07:00 -0.3 90 24 36 W - 281 690.620 48,571
03/04/24 06:00 -0.8 90 24 32 W - 277 690.520 23
03/04/24 05:00 -0.2 90 17 24 W - 278 690.480 0
03/04/24 04:00 0.3 90 17 24 W - 282 690.440 0
03/04/24 03:00 0.6 90 14 23 W - 281 690.180 0
03/04/24 02:00 1.2 90 11 29 W - 289 690.600 0
03/04/24 01:00 1.3 90 13 44 W - 285 690.380 0
03/04/24 00:00 1.3 90 16 39 W - 284 690.420 0
03/03/24 23:00 0.9 90 19 26 W - 277 690.100 0
03/03/24 22:00 1.0 90 20 27 W - 272 689.880 0
03/03/24 21:00 1.2 90 17 23 W - 274 689.860 0
03/03/24 20:00 1.3 90 19 27 W - 274 689.980 0
03/03/24 19:00 0.7 90 16 25 W - 263 689.500 0
03/03/24 18:00 1.6 91 11 16 W - 274 689.580 687
03/03/24 17:00 4.1 92 10 14 W - 278 689.340 57,978
03/03/24 16:00 7.0 93 7 13 W - 284 688.940 175,695
03/03/24 15:00 11.0 94 7 26 W - 286 688.600 302,818
03/03/24 14:00 13.6 95 6 20 W - 289 688.120 412,652
03/03/24 13:00 14.3 95 7 11 W - 288 688.200 555,030
03/03/24 12:00 14.9 95 6 16 W - 281 687.940 616,049
03/03/24 11:00 15.6 95 5 26 W - 265 687.880 681,136
03/03/24 10:00 12.5 94 1 10 W - 279 687.640 595,710
03/03/24 09:00 6.8 92 5 18 W - 268 687.540 538,758
03/03/24 08:00 2.3 91 8 27 W - 267 686.640 286,546
03/03/24 07:00 -1.0 89 3 17 NW - 299 687.140 214,340
03/03/24 06:00 -2.2 89 3 17 NW - 313 687.000 45
03/03/24 05:00 -1.0 90 7 35 NW - 307 686.880 0
03/03/24 04:00 0.0 90 23 69 W - 292 686.620 0
03/03/24 03:00 0.6 90 35 82 NW - 295 686.620 0
03/03/24 02:00 1.4 91 41 87 NW - 299 686.380 0